Terminal Aerodrome Forecast
Issued by NWS Twin Cities, MN

Home | Current Version | Previous Version | Graphics & Text | Print | Product List | Glossary On
Versions: 1 2 3 4 5 6 7 8 9 10 11 12 13 14 15 16 17 18 19
449
FTUS43 KMPX 162339
TAFSTC
TAF
KSTC 162339Z 1700/1724 19012KT P6SM BKN250
     FM170800 20008KT P6SM OVC080
     FM171500 28011KT P6SM SCT150=

USA.gov is the U.S. government's official web portal to all federal, state and local government web resources and services.